FAOB

Overberg Airport

Overberg, South Africa
METAR FAOB 231400Z AUTO 35017KT //// // ////// 25/11 Q1015
Observed Flight Rules
May-23 @ 14:00 UTC (an hour ago)
Wind
350° at 17 knots
Temperatures Readings
Current 25°C / 77°F
Dewpoint 11°C / 52°F
Humidity 42%
Altimeter 29.97" Hg
Pressure 1015 hPa
Elevation 75
METAR FAOB 231400Z AUTO 35017KT //// // ////// 25/11 Q1015
Observed Flight Rules
May-23 @ 14:00 UTC
(an hour ago)
Wind
350° at 17 knots
Temperature Dewpoint
25°C / 77°F 11°C / 52°F
Humidity Altimeter Pressure
42% 29.97" Hg 1015 hPa